sensor_id;sensor_type;location;lat;lon;timestamp;P1;durP1;ratioP1;P2;durP2;ratioP2
68821;SDS011;55834;50.870;4.606;2024-02-04T00:01:48;7.37;;;3.97;;
68821;SDS011;55834;50.870;4.606;2024-02-04T00:04:13;13.87;;;4.60;;
68821;SDS011;55834;50.870;4.606;2024-02-04T00:06:39;5.10;;;3.73;;
68821;SDS011;55834;50.870;4.606;2024-02-04T00:09:04;4.90;;;4.25;;
68821;SDS011;55834;50.870;4.606;2024-02-04T00:11:30;6.10;;;4.60;;
68821;SDS011;55834;50.870;4.606;2024-02-04T00:13:55;4.30;;;3.60;;
68821;SDS011;55834;50.870;4.606;2024-02-04T00:16:21;5.88;;;3.80;;
68821;SDS011;55834;50.870;4.606;2024-02-04T00:18:46;6.10;;;4.20;;
68821;SDS011;55834;50.870;4.606;2024-02-04T00:21:12;6.00;;;4.25;;
68821;SDS011;55834;50.870;4.606;2024-02-04T00:23:37;5.00;;;3.57;;
68821;SDS011;55834;50.870;4.606;2024-02-04T00:26:02;6.77;;;4.60;;
68821;SDS011;55834;50.870;4.606;2024-02-04T00:28:28;6.40;;;4.80;;
68821;SDS011;55834;50.870;4.606;2024-02-04T00:30:53;10.13;;;4.68;;
68821;SDS011;55834;50.870;4.606;2024-02-04T00:33:23;5.35;;;3.25;;
68821;SDS011;55834;50.870;4.606;2024-02-04T00:35:48;4.05;;;3.30;;
68821;SDS011;55834;50.870;4.606;2024-02-04T00:38:15;6.22;;;3.83;;
68821;SDS011;55834;50.870;4.606;2024-02-04T00:40:40;4.25;;;2.83;;
68821;SDS011;55834;50.870;4.606;2024-02-04T00:43:06;3.53;;;2.95;;
68821;SDS011;55834;50.870;4.606;2024-02-04T00:45:31;3.92;;;3.53;;
68821;SDS011;55834;50.870;4.606;2024-02-04T00:47:56;3.40;;;3.00;;
68821;SDS011;55834;50.870;4.606;2024-02-04T00:50:22;5.70;;;3.37;;
68821;SDS011;55834;50.870;4.606;2024-02-04T00:52:47;4.70;;;4.22;;
68821;SDS011;55834;50.870;4.606;2024-02-04T00:55:13;3.30;;;2.22;;
68821;SDS011;55834;50.870;4.606;2024-02-04T00:57:38;5.10;;;2.90;;
68821;SDS011;55834;50.870;4.606;2024-02-04T01:00:04;4.10;;;2.67;;
68821;SDS011;55834;50.870;4.606;2024-02-04T01:02:29;4.95;;;3.47;;
68821;SDS011;55834;50.870;4.606;2024-02-04T01:04:55;2.63;;;2.42;;
68821;SDS011;55834;50.870;4.606;2024-02-04T01:07:21;4.85;;;2.80;;
68821;SDS011;55834;50.870;4.606;2024-02-04T01:09:46;2.92;;;2.72;;
68821;SDS011;55834;50.870;4.606;2024-02-04T01:12:12;5.57;;;3.58;;
68821;SDS011;55834;50.870;4.606;2024-02-04T01:14:37;5.80;;;2.75;;
68821;SDS011;55834;50.870;4.606;2024-02-04T01:17:02;4.10;;;3.00;;
68821;SDS011;55834;50.870;4.606;2024-02-04T01:19:28;3.97;;;2.30;;
68821;SDS011;55834;50.870;4.606;2024-02-04T01:21:53;6.17;;;2.97;;
68821;SDS011;55834;50.870;4.606;2024-02-04T01:24:18;3.78;;;2.22;;
68821;SDS011;55834;50.870;4.606;2024-02-04T01:26:44;3.50;;;2.73;;
68821;SDS011;55834;50.870;4.606;2024-02-04T01:29:09;5.23;;;3.07;;
68821;SDS011;55834;50.870;4.606;2024-02-04T01:31:35;4.85;;;3.47;;
68821;SDS011;55834;50.870;4.606;2024-02-04T01:34:00;5.25;;;2.10;;
68821;SDS011;55834;50.870;4.606;2024-02-04T01:36:25;2.83;;;2.40;;
68821;SDS011;55834;50.870;4.606;2024-02-04T01:38:51;2.97;;;2.70;;
68821;SDS011;55834;50.870;4.606;2024-02-04T01:41:16;4.07;;;2.80;;
68821;SDS011;55834;50.870;4.606;2024-02-04T01:43:42;4.32;;;2.63;;
68821;SDS011;55834;50.870;4.606;2024-02-04T01:46:07;6.57;;;3.33;;
68821;SDS011;55834;50.870;4.606;2024-02-04T01:48:34;3.35;;;2.35;;
68821;SDS011;55834;50.870;4.606;2024-02-04T01:51:00;3.03;;;1.90;;
68821;SDS011;55834;50.870;4.606;2024-02-04T01:53:26;3.38;;;3.08;;
68821;SDS011;55834;50.870;4.606;2024-02-04T01:55:53;4.40;;;2.33;;
68821;SDS011;55834;50.870;4.606;2024-02-04T01:58:20;2.92;;;2.20;;
68821;SDS011;55834;50.870;4.606;2024-02-04T02:00:45;4.00;;;2.42;;
68821;SDS011;55834;50.870;4.606;2024-02-04T02:03:11;5.20;;;2.60;;
68821;SDS011;55834;50.870;4.606;2024-02-04T02:05:37;3.17;;;2.70;;
68821;SDS011;55834;50.870;4.606;2024-02-04T02:08:04;4.78;;;2.90;;
68821;SDS011;55834;50.870;4.606;2024-02-04T02:10:30;3.22;;;2.90;;
68821;SDS011;55834;50.870;4.606;2024-02-04T02:12:57;5.00;;;2.78;;
68821;SDS011;55834;50.870;4.606;2024-02-04T02:15:27;4.60;;;2.58;;
68821;SDS011;55834;50.870;4.606;2024-02-04T02:23:35;3.78;;;2.70;;
68821;SDS011;55834;50.870;4.606;2024-02-04T02:26:05;2.60;;;2.40;;
68821;SDS011;55834;50.870;4.606;2024-02-04T02:28:31;3.78;;;3.22;;
68821;SDS011;55834;50.870;4.606;2024-02-04T02:30:57;4.22;;;3.03;;
68821;SDS011;55834;50.870;4.606;2024-02-04T02:33:23;6.88;;;3.53;;
68821;SDS011;55834;50.870;4.606;2024-02-04T02:35:49;5.55;;;3.38;;
68821;SDS011;55834;50.870;4.606;2024-02-04T02:41:34;5.15;;;2.80;;
68821;SDS011;55834;50.870;4.606;2024-02-04T02:44:01;6.38;;;3.83;;
68821;SDS011;55834;50.870;4.606;2024-02-04T02:46:28;8.43;;;4.93;;
68821;SDS011;55834;50.870;4.606;2024-02-04T02:48:53;6.97;;;3.20;;
68821;SDS011;55834;50.870;4.606;2024-02-04T02:51:19;5.35;;;3.35;;
68821;SDS011;55834;50.870;4.606;2024-02-04T02:53:44;6.28;;;3.92;;
68821;SDS011;55834;50.870;4.606;2024-02-04T02:56:10;4.13;;;3.63;;
68821;SDS011;55834;50.870;4.606;2024-02-04T02:58:35;6.47;;;3.75;;
68821;SDS011;55834;50.870;4.606;2024-02-04T03:01:01;7.55;;;3.83;;
68821;SDS011;55834;50.870;4.606;2024-02-04T03:03:26;6.90;;;4.18;;
68821;SDS011;55834;50.870;4.606;2024-02-04T03:05:52;10.50;;;4.50;;
68821;SDS011;55834;50.870;4.606;2024-02-04T03:08:17;6.73;;;4.83;;
68821;SDS011;55834;50.870;4.606;2024-02-04T03:10:43;7.18;;;4.43;;
68821;SDS011;55834;50.870;4.606;2024-02-04T03:13:08;5.67;;;4.53;;
68821;SDS011;55834;50.870;4.606;2024-02-04T03:15:33;9.17;;;4.37;;
68821;SDS011;55834;50.870;4.606;2024-02-04T03:17:59;8.95;;;4.70;;
68821;SDS011;55834;50.870;4.606;2024-02-04T03:20:24;7.30;;;4.72;;
68821;SDS011;55834;50.870;4.606;2024-02-04T03:22:49;11.67;;;6.23;;
68821;SDS011;55834;50.870;4.606;2024-02-04T03:25:15;12.30;;;5.30;;
68821;SDS011;55834;50.870;4.606;2024-02-04T03:27:40;7.83;;;5.03;;
68821;SDS011;55834;50.870;4.606;2024-02-04T03:30:06;8.53;;;4.50;;
68821;SDS011;55834;50.870;4.606;2024-02-04T03:32:31;7.22;;;4.43;;
68821;SDS011;55834;50.870;4.606;2024-02-04T03:35:01;12.10;;;5.50;;
68821;SDS011;55834;50.870;4.606;2024-02-04T03:37:27;9.05;;;4.07;;
68821;SDS011;55834;50.870;4.606;2024-02-04T03:39:53;9.05;;;4.68;;
68821;SDS011;55834;50.870;4.606;2024-02-04T03:42:18;8.83;;;4.07;;
68821;SDS011;55834;50.870;4.606;2024-02-04T03:44:46;9.30;;;4.40;;
68821;SDS011;55834;50.870;4.606;2024-02-04T03:47:12;9.88;;;5.03;;
68821;SDS011;55834;50.870;4.606;2024-02-04T03:49:37;7.53;;;4.40;;
68821;SDS011;55834;50.870;4.606;2024-02-04T03:52:03;8.00;;;4.30;;
68821;SDS011;55834;50.870;4.606;2024-02-04T03:54:28;9.80;;;4.20;;
68821;SDS011;55834;50.870;4.606;2024-02-04T03:56:54;7.72;;;3.25;;
68821;SDS011;55834;50.870;4.606;2024-02-04T03:59:19;7.20;;;4.20;;
68821;SDS011;55834;50.870;4.606;2024-02-04T04:01:48;6.50;;;4.57;;
68821;SDS011;55834;50.870;4.606;2024-02-04T04:04:14;10.93;;;4.80;;
68821;SDS011;55834;50.870;4.606;2024-02-04T04:06:40;7.20;;;4.32;;
68821;SDS011;55834;50.870;4.606;2024-02-04T04:09:06;6.75;;;3.78;;
68821;SDS011;55834;50.870;4.606;2024-02-04T04:11:32;6.30;;;3.37;;
68821;SDS011;55834;50.870;4.606;2024-02-04T04:13:57;8.85;;;3.72;;
68821;SDS011;55834;50.870;4.606;2024-02-04T04:16:23;4.97;;;3.10;;
68821;SDS011;55834;50.870;4.606;2024-02-04T04:18:48;4.90;;;3.40;;
68821;SDS011;55834;50.870;4.606;2024-02-04T04:21:14;5.93;;;3.25;;
68821;SDS011;55834;50.870;4.606;2024-02-04T04:23:40;5.72;;;4.07;;
68821;SDS011;55834;50.870;4.606;2024-02-04T04:26:05;6.63;;;3.40;;
68821;SDS011;55834;50.870;4.606;2024-02-04T04:28:31;5.63;;;4.03;;
68821;SDS011;55834;50.870;4.606;2024-02-04T04:30:56;5.18;;;3.40;;
68821;SDS011;55834;50.870;4.606;2024-02-04T04:33:22;9.20;;;4.07;;
68821;SDS011;55834;50.870;4.606;2024-02-04T04:35:47;6.47;;;3.23;;
68821;SDS011;55834;50.870;4.606;2024-02-04T04:38:13;9.48;;;3.88;;
68821;SDS011;55834;50.870;4.606;2024-02-04T04:40:38;5.28;;;3.45;;
68821;SDS011;55834;50.870;4.606;2024-02-04T04:45:31;7.35;;;3.65;;
68821;SDS011;55834;50.870;4.606;2024-02-04T04:47:56;6.15;;;3.83;;
68821;SDS011;55834;50.870;4.606;2024-02-04T04:50:22;5.00;;;3.17;;
68821;SDS011;55834;50.870;4.606;2024-02-04T04:52:48;4.75;;;3.55;;
68821;SDS011;55834;50.870;4.606;2024-02-04T04:55:13;5.38;;;3.45;;
68821;SDS011;55834;50.870;4.606;2024-02-04T04:57:38;4.70;;;2.63;;
68821;SDS011;55834;50.870;4.606;2024-02-04T05:00:04;6.20;;;3.10;;
68821;SDS011;55834;50.870;4.606;2024-02-04T05:02:35;5.40;;;3.30;;
68821;SDS011;55834;50.870;4.606;2024-02-04T05:05:01;5.38;;;2.88;;
68821;SDS011;55834;50.870;4.606;2024-02-04T05:07:27;7.93;;;3.42;;
68821;SDS011;55834;50.870;4.606;2024-02-04T05:09:52;4.70;;;2.63;;
68821;SDS011;55834;50.870;4.606;2024-02-04T05:12:18;4.85;;;3.38;;
68821;SDS011;55834;50.870;4.606;2024-02-04T05:14:43;6.72;;;2.83;;
68821;SDS011;55834;50.870;4.606;2024-02-04T05:17:09;3.33;;;2.50;;
68821;SDS011;55834;50.870;4.606;2024-02-04T05:19:34;6.90;;;3.45;;
68821;SDS011;55834;50.870;4.606;2024-02-04T05:22:00;4.70;;;3.42;;
68821;SDS011;55834;50.870;4.606;2024-02-04T05:24:26;4.45;;;2.65;;
68821;SDS011;55834;50.870;4.606;2024-02-04T05:26:51;6.00;;;2.90;;
68821;SDS011;55834;50.870;4.606;2024-02-04T05:29:17;4.78;;;2.75;;
68821;SDS011;55834;50.870;4.606;2024-02-04T05:31:42;8.83;;;3.13;;
68821;SDS011;55834;50.870;4.606;2024-02-04T05:34:08;5.13;;;2.90;;
68821;SDS011;55834;50.870;4.606;2024-02-04T05:36:34;4.28;;;3.20;;
68821;SDS011;55834;50.870;4.606;2024-02-04T05:39:10;4.20;;;2.30;;
68821;SDS011;55834;50.870;4.606;2024-02-04T05:41:36;7.93;;;2.67;;
68821;SDS011;55834;50.870;4.606;2024-02-04T05:44:01;5.00;;;2.90;;
68821;SDS011;55834;50.870;4.606;2024-02-04T05:46:27;4.30;;;2.83;;
68821;SDS011;55834;50.870;4.606;2024-02-04T05:48:53;4.55;;;2.25;;
68821;SDS011;55834;50.870;4.606;2024-02-04T05:51:18;4.50;;;2.78;;
68821;SDS011;55834;50.870;4.606;2024-02-04T05:53:44;3.90;;;2.90;;
68821;SDS011;55834;50.870;4.606;2024-02-04T05:56:09;5.27;;;2.37;;
68821;SDS011;55834;50.870;4.606;2024-02-04T05:58:35;5.43;;;3.53;;
68821;SDS011;55834;50.870;4.606;2024-02-04T06:01:00;8.17;;;4.07;;
68821;SDS011;55834;50.870;4.606;2024-02-04T06:03:25;6.93;;;3.92;;
68821;SDS011;55834;50.870;4.606;2024-02-04T06:05:51;7.93;;;4.10;;
68821;SDS011;55834;50.870;4.606;2024-02-04T06:08:16;5.83;;;3.60;;
68821;SDS011;55834;50.870;4.606;2024-02-04T06:10:41;5.17;;;4.20;;
68821;SDS011;55834;50.870;4.606;2024-02-04T06:13:07;8.43;;;4.20;;
68821;SDS011;55834;50.870;4.606;2024-02-04T06:15:32;6.70;;;4.03;;
68821;SDS011;55834;50.870;4.606;2024-02-04T06:18:00;7.88;;;4.72;;
68821;SDS011;55834;50.870;4.606;2024-02-04T06:20:26;6.07;;;3.63;;
68821;SDS011;55834;50.870;4.606;2024-02-04T06:22:51;7.03;;;3.78;;
68821;SDS011;55834;50.870;4.606;2024-02-04T06:25:17;7.90;;;4.00;;
68821;SDS011;55834;50.870;4.606;2024-02-04T06:27:42;10.50;;;3.78;;
68821;SDS011;55834;50.870;4.606;2024-02-04T06:30:08;6.15;;;4.40;;
68821;SDS011;55834;50.870;4.606;2024-02-04T06:32:34;9.05;;;4.00;;
68821;SDS011;55834;50.870;4.606;2024-02-04T06:34:59;10.10;;;5.13;;
68821;SDS011;55834;50.870;4.606;2024-02-04T06:37:24;7.33;;;4.53;;
68821;SDS011;55834;50.870;4.606;2024-02-04T06:39:51;10.98;;;4.07;;
68821;SDS011;55834;50.870;4.606;2024-02-04T06:42:17;7.43;;;4.15;;
68821;SDS011;55834;50.870;4.606;2024-02-04T06:44:43;5.28;;;3.90;;
68821;SDS011;55834;50.870;4.606;2024-02-04T06:47:09;5.78;;;4.43;;
68821;SDS011;55834;50.870;4.606;2024-02-04T06:49:37;14.63;;;4.97;;
68821;SDS011;55834;50.870;4.606;2024-02-04T06:52:03;6.90;;;4.68;;
68821;SDS011;55834;50.870;4.606;2024-02-04T06:54:29;8.02;;;4.57;;
68821;SDS011;55834;50.870;4.606;2024-02-04T06:56:54;7.27;;;3.60;;
68821;SDS011;55834;50.870;4.606;2024-02-04T06:59:19;4.75;;;3.47;;
68821;SDS011;55834;50.870;4.606;2024-02-04T07:01:45;5.55;;;3.65;;
68821;SDS011;55834;50.870;4.606;2024-02-04T07:04:10;5.90;;;3.00;;
68821;SDS011;55834;50.870;4.606;2024-02-04T07:06:36;7.60;;;3.83;;
68821;SDS011;55834;50.870;4.606;2024-02-04T07:09:01;7.07;;;3.23;;
68821;SDS011;55834;50.870;4.606;2024-02-04T07:11:26;7.13;;;4.30;;
68821;SDS011;55834;50.870;4.606;2024-02-04T07:13:52;7.67;;;3.57;;
68821;SDS011;55834;50.870;4.606;2024-02-04T07:16:23;5.03;;;3.20;;
68821;SDS011;55834;50.870;4.606;2024-02-04T07:18:49;6.00;;;4.00;;
68821;SDS011;55834;50.870;4.606;2024-02-04T07:21:15;6.50;;;4.00;;
68821;SDS011;55834;50.870;4.606;2024-02-04T07:23:40;8.15;;;4.47;;
68821;SDS011;55834;50.870;4.606;2024-02-04T07:26:06;7.60;;;4.47;;
68821;SDS011;55834;50.870;4.606;2024-02-04T07:28:32;7.07;;;3.97;;
68821;SDS011;55834;50.870;4.606;2024-02-04T07:30:57;6.03;;;4.40;;
68821;SDS011;55834;50.870;4.606;2024-02-04T07:33:23;7.50;;;4.05;;
68821;SDS011;55834;50.870;4.606;2024-02-04T07:35:48;9.38;;;4.70;;
68821;SDS011;55834;50.870;4.606;2024-02-04T07:38:13;7.93;;;5.40;;
68821;SDS011;55834;50.870;4.606;2024-02-04T07:40:39;8.27;;;4.90;;
68821;SDS011;55834;50.870;4.606;2024-02-04T07:43:04;9.20;;;5.78;;
68821;SDS011;55834;50.870;4.606;2024-02-04T07:45:30;7.85;;;4.72;;
68821;SDS011;55834;50.870;4.606;2024-02-04T07:47:55;8.57;;;4.78;;
68821;SDS011;55834;50.870;4.606;2024-02-04T07:50:21;6.20;;;4.63;;
68821;SDS011;55834;50.870;4.606;2024-02-04T07:52:46;10.57;;;6.55;;
68821;SDS011;55834;50.870;4.606;2024-02-04T07:55:12;11.02;;;5.35;;
68821;SDS011;55834;50.870;4.606;2024-02-04T07:57:37;9.00;;;5.18;;
68821;SDS011;55834;50.870;4.606;2024-02-04T08:00:03;7.80;;;5.80;;
68821;SDS011;55834;50.870;4.606;2024-02-04T08:02:30;7.15;;;4.28;;
68821;SDS011;55834;50.870;4.606;2024-02-04T08:04:56;5.75;;;4.65;;
68821;SDS011;55834;50.870;4.606;2024-02-04T08:07:21;6.63;;;4.72;;
68821;SDS011;55834;50.870;4.606;2024-02-04T08:09:47;8.02;;;4.60;;
68821;SDS011;55834;50.870;4.606;2024-02-04T08:12:12;6.37;;;5.40;;
68821;SDS011;55834;50.870;4.606;2024-02-04T08:14:37;5.45;;;3.83;;
68821;SDS011;55834;50.870;4.606;2024-02-04T08:17:03;4.47;;;3.63;;
68821;SDS011;55834;50.870;4.606;2024-02-04T08:19:28;7.80;;;4.25;;
68821;SDS011;55834;50.870;4.606;2024-02-04T08:21:54;7.15;;;4.03;;
68821;SDS011;55834;50.870;4.606;2024-02-04T08:24:19;5.43;;;3.58;;
68821;SDS011;55834;50.870;4.606;2024-02-04T08:26:44;5.60;;;3.53;;
68821;SDS011;55834;50.870;4.606;2024-02-04T08:29:10;6.05;;;4.25;;
68821;SDS011;55834;50.870;4.606;2024-02-04T08:31:36;4.72;;;3.28;;
68821;SDS011;55834;50.870;4.606;2024-02-04T08:34:01;7.40;;;3.80;;
68821;SDS011;55834;50.870;4.606;2024-02-04T08:36:28;4.82;;;2.97;;
68821;SDS011;55834;50.870;4.606;2024-02-04T08:38:55;5.32;;;3.22;;
68821;SDS011;55834;50.870;4.606;2024-02-04T08:41:21;8.27;;;4.75;;
68821;SDS011;55834;50.870;4.606;2024-02-04T08:43:46;5.90;;;3.30;;
68821;SDS011;55834;50.870;4.606;2024-02-04T08:46:12;3.35;;;3.05;;
68821;SDS011;55834;50.870;4.606;2024-02-04T08:48:37;3.88;;;3.40;;
68821;SDS011;55834;50.870;4.606;2024-02-04T08:51:03;4.50;;;3.25;;
68821;SDS011;55834;50.870;4.606;2024-02-04T08:53:29;4.53;;;2.90;;
68821;SDS011;55834;50.870;4.606;2024-02-04T08:55:54;5.20;;;3.47;;
68821;SDS011;55834;50.870;4.606;2024-02-04T08:58:19;7.43;;;3.83;;
68821;SDS011;55834;50.870;4.606;2024-02-04T09:00:45;4.50;;;3.07;;
68821;SDS011;55834;50.870;4.606;2024-02-04T09:03:10;4.53;;;3.37;;
68821;SDS011;55834;50.870;4.606;2024-02-04T09:05:36;5.57;;;3.63;;
68821;SDS011;55834;50.870;4.606;2024-02-04T09:08:01;5.87;;;3.20;;
68821;SDS011;55834;50.870;4.606;2024-02-04T09:10:27;5.18;;;3.92;;
68821;SDS011;55834;50.870;4.606;2024-02-04T09:12:52;6.68;;;3.15;;
68821;SDS011;55834;50.870;4.606;2024-02-04T09:15:17;4.20;;;3.47;;
68821;SDS011;55834;50.870;4.606;2024-02-04T09:17:43;5.03;;;3.07;;
68821;SDS011;55834;50.870;4.606;2024-02-04T09:20:08;6.75;;;3.45;;
68821;SDS011;55834;50.870;4.606;2024-02-04T09:22:34;3.58;;;2.88;;
68821;SDS011;55834;50.870;4.606;2024-02-04T09:25:00;6.17;;;2.77;;
68821;SDS011;55834;50.870;4.606;2024-02-04T09:27:26;4.63;;;3.55;;
68821;SDS011;55834;50.870;4.606;2024-02-04T09:29:51;2.63;;;2.30;;
68821;SDS011;55834;50.870;4.606;2024-02-04T09:32:17;3.92;;;2.22;;
68821;SDS011;55834;50.870;4.606;2024-02-04T09:34:42;4.75;;;2.80;;
68821;SDS011;55834;50.870;4.606;2024-02-04T09:37:08;3.78;;;2.15;;
68821;SDS011;55834;50.870;4.606;2024-02-04T09:39:34;5.70;;;2.50;;
68821;SDS011;55834;50.870;4.606;2024-02-04T09:41:59;4.00;;;2.30;;
68821;SDS011;55834;50.870;4.606;2024-02-04T09:44:24;4.47;;;2.10;;
68821;SDS011;55834;50.870;4.606;2024-02-04T09:46:50;4.50;;;2.33;;
68821;SDS011;55834;50.870;4.606;2024-02-04T09:49:17;7.63;;;2.97;;
68821;SDS011;55834;50.870;4.606;2024-02-04T09:51:42;2.45;;;2.25;;
68821;SDS011;55834;50.870;4.606;2024-02-04T09:54:09;4.13;;;2.30;;
68821;SDS011;55834;50.870;4.606;2024-02-04T09:56:35;4.30;;;1.88;;
68821;SDS011;55834;50.870;4.606;2024-02-04T09:59:02;2.45;;;1.92;;
68821;SDS011;55834;50.870;4.606;2024-02-04T10:01:29;2.83;;;2.25;;
68821;SDS011;55834;50.870;4.606;2024-02-04T10:03:56;5.05;;;2.08;;
68821;SDS011;55834;50.870;4.606;2024-02-04T10:06:21;5.43;;;2.15;;
68821;SDS011;55834;50.870;4.606;2024-02-04T10:08:47;2.50;;;2.25;;
68821;SDS011;55834;50.870;4.606;2024-02-04T10:11:13;4.00;;;1.70;;
68821;SDS011;55834;50.870;4.606;2024-02-04T10:13:48;3.58;;;2.13;;
68821;SDS011;55834;50.870;4.606;2024-02-04T10:16:15;2.95;;;2.13;;
68821;SDS011;55834;50.870;4.606;2024-02-04T10:18:44;3.30;;;1.80;;
68821;SDS011;55834;50.870;4.606;2024-02-04T10:21:20;3.35;;;1.83;;
68821;SDS011;55834;50.870;4.606;2024-02-04T10:23:48;2.28;;;1.42;;
68821;SDS011;55834;50.870;4.606;2024-02-04T10:26:15;1.95;;;1.80;;
68821;SDS011;55834;50.870;4.606;2024-02-04T10:28:42;3.75;;;2.15;;
68821;SDS011;55834;50.870;4.606;2024-02-04T10:31:10;3.47;;;2.50;;
68821;SDS011;55834;50.870;4.606;2024-02-04T10:33:36;2.58;;;2.33;;
68821;SDS011;55834;50.870;4.606;2024-02-04T10:36:02;3.30;;;1.80;;
68821;SDS011;55834;50.870;4.606;2024-02-04T10:38:28;5.50;;;2.45;;
68821;SDS011;55834;50.870;4.606;2024-02-04T10:40:54;2.65;;;2.45;;
68821;SDS011;55834;50.870;4.606;2024-02-04T10:43:22;3.30;;;1.73;;
68821;SDS011;55834;50.870;4.606;2024-02-04T10:45:50;5.63;;;3.15;;
68821;SDS011;55834;50.870;4.606;2024-02-04T10:48:19;6.05;;;3.47;;
68821;SDS011;55834;50.870;4.606;2024-02-04T10:50:46;3.65;;;2.33;;
68821;SDS011;55834;50.870;4.606;2024-02-04T10:53:13;5.20;;;3.17;;
68821;SDS011;55834;50.870;4.606;2024-02-04T10:55:43;4.70;;;2.38;;
68821;SDS011;55834;50.870;4.606;2024-02-04T10:58:12;3.05;;;2.35;;
68821;SDS011;55834;50.870;4.606;2024-02-04T11:00:40;3.35;;;2.95;;
68821;SDS011;55834;50.870;4.606;2024-02-04T11:03:06;3.42;;;2.03;;
68821;SDS011;55834;50.870;4.606;2024-02-04T11:05:32;3.28;;;2.20;;
68821;SDS011;55834;50.870;4.606;2024-02-04T11:08:00;2.92;;;2.20;;
68821;SDS011;55834;50.870;4.606;2024-02-04T11:10:26;2.28;;;2.05;;
68821;SDS011;55834;50.870;4.606;2024-02-04T11:12:53;3.05;;;1.88;;
68821;SDS011;55834;50.870;4.606;2024-02-04T11:15:20;2.53;;;1.20;;
68821;SDS011;55834;50.870;4.606;2024-02-04T11:28:12;2.47;;;1.60;;
68821;SDS011;55834;50.870;4.606;2024-02-04T11:30:38;1.98;;;1.65;;
68821;SDS011;55834;50.870;4.606;2024-02-04T11:33:04;2.45;;;1.63;;
68821;SDS011;55834;50.870;4.606;2024-02-04T11:35:33;5.80;;;1.60;;
68821;SDS011;55834;50.870;4.606;2024-02-04T11:37:59;2.05;;;1.92;;
68821;SDS011;55834;50.870;4.606;2024-02-04T11:40:30;1.63;;;1.25;;
68821;SDS011;55834;50.870;4.606;2024-02-04T11:43:06;2.00;;;1.90;;
68821;SDS011;55834;50.870;4.606;2024-02-04T11:45:32;2.50;;;1.30;;
68821;SDS011;55834;50.870;4.606;2024-02-04T11:48:09;4.97;;;2.17;;
68821;SDS011;55834;50.870;4.606;2024-02-04T11:50:35;3.35;;;1.80;;
68821;SDS011;55834;50.870;4.606;2024-02-04T11:53:05;1.50;;;1.40;;
68821;SDS011;55834;50.870;4.606;2024-02-04T11:55:34;2.67;;;1.25;;
68821;SDS011;55834;50.870;4.606;2024-02-04T11:58:01;3.63;;;2.60;;
68821;SDS011;55834;50.870;4.606;2024-02-04T12:00:27;2.67;;;1.40;;
68821;SDS011;55834;50.870;4.606;2024-02-04T12:03:13;2.33;;;0.98;;
68821;SDS011;55834;50.870;4.606;2024-02-04T12:05:38;2.08;;;1.17;;
68821;SDS011;55834;50.870;4.606;2024-02-04T12:08:07;3.72;;;1.48;;
68821;SDS011;55834;50.870;4.606;2024-02-04T12:10:34;3.47;;;1.27;;
68821;SDS011;55834;50.870;4.606;2024-02-04T12:13:01;3.25;;;1.35;;
68821;SDS011;55834;50.870;4.606;2024-02-04T12:15:28;4.47;;;2.00;;
68821;SDS011;55834;50.870;4.606;2024-02-04T12:17:55;2.13;;;1.55;;
68821;SDS011;55834;50.870;4.606;2024-02-04T12:20:21;1.67;;;1.48;;
68821;SDS011;55834;50.870;4.606;2024-02-04T12:22:46;1.27;;;1.17;;
68821;SDS011;55834;50.870;4.606;2024-02-04T12:25:13;3.17;;;1.75;;
68821;SDS011;55834;50.870;4.606;2024-02-04T12:27:39;2.95;;;0.70;;
68821;SDS011;55834;50.870;4.606;2024-02-04T12:30:05;1.35;;;1.25;;
68821;SDS011;55834;50.870;4.606;2024-02-04T12:32:32;4.90;;;1.80;;
68821;SDS011;55834;50.870;4.606;2024-02-04T12:34:57;2.97;;;2.03;;
68821;SDS011;55834;50.870;4.606;2024-02-04T12:37:23;2.63;;;1.23;;
68821;SDS011;55834;50.870;4.606;2024-02-04T12:39:49;2.08;;;1.38;;
68821;SDS011;55834;50.870;4.606;2024-02-04T12:42:15;2.37;;;1.13;;
68821;SDS011;55834;50.870;4.606;2024-02-04T12:44:46;5.35;;;1.65;;
68821;SDS011;55834;50.870;4.606;2024-02-04T12:47:12;2.92;;;1.73;;
68821;SDS011;55834;50.870;4.606;2024-02-04T12:49:39;1.90;;;1.80;;
68821;SDS011;55834;50.870;4.606;2024-02-04T12:52:05;2.92;;;1.55;;
68821;SDS011;55834;50.870;4.606;2024-02-04T12:54:40;0.98;;;0.98;;
68821;SDS011;55834;50.870;4.606;2024-02-04T12:57:09;1.13;;;1.10;;
68821;SDS011;55834;50.870;4.606;2024-02-04T12:59:36;2.15;;;1.70;;
68821;SDS011;55834;50.870;4.606;2024-02-04T13:02:03;1.55;;;1.00;;
68821;SDS011;55834;50.870;4.606;2024-02-04T13:04:36;1.50;;;1.40;;
68821;SDS011;55834;50.870;4.606;2024-02-04T13:07:09;1.23;;;1.20;;
68821;SDS011;55834;50.870;4.606;2024-02-04T13:09:39;3.10;;;1.00;;
68821;SDS011;55834;50.870;4.606;2024-02-04T13:12:06;1.63;;;1.27;;
68821;SDS011;55834;50.870;4.606;2024-02-04T13:14:38;1.45;;;1.35;;
68821;SDS011;55834;50.870;4.606;2024-02-04T13:17:04;1.40;;;1.38;;
68821;SDS011;55834;50.870;4.606;2024-02-04T13:19:33;1.50;;;1.10;;
68821;SDS011;55834;50.870;4.606;2024-02-04T13:22:03;1.40;;;0.98;;
68821;SDS011;55834;50.870;4.606;2024-02-04T13:24:29;1.45;;;1.38;;
68821;SDS011;55834;50.870;4.606;2024-02-04T13:26:56;1.15;;;1.02;;
68821;SDS011;55834;50.870;4.606;2024-02-04T13:29:22;1.88;;;1.20;;
68821;SDS011;55834;50.870;4.606;2024-02-04T13:31:47;1.10;;;1.08;;
68821;SDS011;55834;50.870;4.606;2024-02-04T13:34:13;1.50;;;1.40;;
68821;SDS011;55834;50.870;4.606;2024-02-04T13:36:38;1.63;;;1.53;;
68821;SDS011;55834;50.870;4.606;2024-02-04T13:39:03;3.90;;;1.70;;
68821;SDS011;55834;50.870;4.606;2024-02-04T13:41:30;1.30;;;1.20;;
68821;SDS011;55834;50.870;4.606;2024-02-04T13:43:56;1.42;;;1.33;;
68821;SDS011;55834;50.870;4.606;2024-02-04T13:46:22;2.25;;;1.33;;
68821;SDS011;55834;50.870;4.606;2024-02-04T13:48:47;2.20;;;1.35;;
68821;SDS011;55834;50.870;4.606;2024-02-04T13:51:13;1.27;;;1.13;;
68821;SDS011;55834;50.870;4.606;2024-02-04T13:53:38;2.10;;;1.25;;
68821;SDS011;55834;50.870;4.606;2024-02-04T13:56:04;1.52;;;0.90;;
68821;SDS011;55834;50.870;4.606;2024-02-04T13:58:29;3.35;;;1.27;;
68821;SDS011;55834;50.870;4.606;2024-02-04T14:00:55;1.58;;;1.48;;
68821;SDS011;55834;50.870;4.606;2024-02-04T14:03:20;1.13;;;1.02;;
68821;SDS011;55834;50.870;4.606;2024-02-04T14:05:45;1.73;;;1.20;;
68821;SDS011;55834;50.870;4.606;2024-02-04T14:08:11;1.60;;;1.30;;
68821;SDS011;55834;50.870;4.606;2024-02-04T14:10:36;1.47;;;1.37;;
68821;SDS011;55834;50.870;4.606;2024-02-04T14:13:02;1.48;;;1.38;;
68821;SDS011;55834;50.870;4.606;2024-02-04T14:15:28;1.60;;;1.50;;
68821;SDS011;55834;50.870;4.606;2024-02-04T14:17:53;1.52;;;1.38;;
68821;SDS011;55834;50.870;4.606;2024-02-04T14:20:19;1.85;;;1.63;;
68821;SDS011;55834;50.870;4.606;2024-02-04T14:22:44;2.20;;;1.63;;
68821;SDS011;55834;50.870;4.606;2024-02-04T14:25:10;3.85;;;1.50;;
68821;SDS011;55834;50.870;4.606;2024-02-04T14:27:35;1.75;;;1.38;;
68821;SDS011;55834;50.870;4.606;2024-02-04T14:30:02;2.47;;;1.95;;
68821;SDS011;55834;50.870;4.606;2024-02-04T14:32:28;1.75;;;1.65;;
68821;SDS011;55834;50.870;4.606;2024-02-04T14:34:53;3.90;;;1.60;;
68821;SDS011;55834;50.870;4.606;2024-02-04T14:37:19;5.28;;;1.83;;
68821;SDS011;55834;50.870;4.606;2024-02-04T14:39:45;1.83;;;1.67;;
68821;SDS011;55834;50.870;4.606;2024-02-04T14:42:10;4.50;;;1.60;;
68821;SDS011;55834;50.870;4.606;2024-02-04T14:44:35;3.40;;;1.67;;
68821;SDS011;55834;50.870;4.606;2024-02-04T14:47:01;3.23;;;2.53;;
68821;SDS011;55834;50.870;4.606;2024-02-04T14:49:26;1.58;;;1.48;;
68821;SDS011;55834;50.870;4.606;2024-02-04T14:51:52;1.58;;;1.48;;
68821;SDS011;55834;50.870;4.606;2024-02-04T14:54:21;2.67;;;1.95;;
68821;SDS011;55834;50.870;4.606;2024-02-04T14:56:46;6.22;;;2.17;;
68821;SDS011;55834;50.870;4.606;2024-02-04T14:59:13;2.33;;;1.77;;
68821;SDS011;55834;50.870;4.606;2024-02-04T15:01:39;2.25;;;1.90;;
68821;SDS011;55834;50.870;4.606;2024-02-04T15:04:09;2.75;;;2.53;;